TAF and METAR

METAR for Ushuaia - Malvinas Argentinas International Airport

SAWH 061200Z 25003KT CAVOK 01/M02 Q0996
Report created 6. aug 14:00
wind 3 knots from WSW (250°) Clear sky Temperature 1° with dewpoint at -2° (Humidity 80.34%) Pressure 996 hPa

TAF for Ushuaia - Malvinas Argentinas International Airport

TAF SAWH 061100Z 0612/0712 36002KT CAVOK TX04/0618Z TNM03/0706Z BECMG 0615/0617 34010KT 9999 SCT030 BKN090 TEMPO 0615/0618 SHRASN BKN030 OVC050 BECMG 0623/0701 23020KT 5000 SNRA BKN020 OVC050 BECMG 0706/0708 34010KT NSW SCT030 BKN050
Report created 6. aug 13:00

between 6. aug 14:00 - 7. aug 14:00

wind 2 knots from N (360°) Clear sky Max temperature 04° expected today at around 20 o'clock Min temperature -03° expected tomorrow at around 08 o'clock

becoming between 6. aug 17:00 - 6. aug 19:00

wind 10 knots from NNW (340°) visibility > 10km scattered clouds (~50% cover) at 3000 feet broken clouds (~75% cover) at 9000 feet

temporarily between 6. aug 17:00 - 6. aug 20:00

sleet showers broken clouds (~75% cover) at 3000 feet overcast at 5000 feet

becoming between 7. aug 01:00 - 7. aug 03:00

wind 20 knots from SW (230°) visibility 5000 meters sleet broken clouds (~75% cover) at 2000 feet overcast at 5000 feet

becoming between 7. aug 08:00 - 7. aug 10:00

wind 10 knots from NNW (340°) scattered clouds (~50% cover) at 3000 feet broken clouds (~75% cover) at 5000 feet
Ushuaia - Malvinas Argentinas International Airport in Argentina at 14m

Latest 5 airports